Time;durP1;ratioP1;P1;durP2;ratioP2;P2;SDS_P1;SDS_P2;PMS_P1;PMS_P2;Temp;Humidity;BMP_temperature;BMP_pressure;BME280_temperature;BME280_humidity;BME280_pressure;Samples;Min_cycle;Max_cycle;Signal;HPM_P1;HPM_P2
2022/01/20 00:00:55;;;;;;;36.83;4.65;;;3.80;99.90;;;;;;5055003;28;20053;-50
2022/01/20 00:03:30;;;;;;;22.45;3.80;;;3.90;99.90;;;;;;5058355;28;20514;-51
2022/01/20 00:08:53;;;;;;;29.02;4.38;;;4.00;99.90;;;;;;5054264;28;20132;-52
2022/01/20 00:28:12;;;;;;;16.63;3.33;;;4.30;99.90;;;;;;5056339;28;20037;-52
2022/01/20 00:30:41;;;;;;;20.40;2.90;;;4.30;99.90;;;;;;5053952;28;20052;-53
2022/01/20 00:38:20;;;;;;;19.77;3.15;;;4.00;99.90;;;;;;5057932;28;19951;-49
2022/01/20 00:40:45;;;;;;;21.75;3.15;;;3.90;99.90;;;;;;5059979;28;20056;-52
2022/01/20 00:43:11;;;;;;;16.48;2.90;;;3.90;99.90;;;;;;5059658;28;20529;-53
2022/01/20 00:45:37;;;;;;;18.90;2.85;;;3.90;99.90;;;;;;5057424;28;20386;-51
2022/01/20 00:48:02;;;;;;;15.23;2.70;;;3.90;99.90;;;;;;5057346;28;20047;-52
2022/01/20 00:50:28;;;;;;;13.68;2.17;;;3.80;99.90;;;;;;5059310;28;20487;-50
2022/01/20 00:52:53;;;;;;;18.02;2.55;;;3.80;99.90;;;;;;5059641;28;20854;-50
2022/01/20 00:55:20;;;;;;;15.32;2.50;;;3.80;99.90;;;;;;5057825;28;20125;-51
2022/01/20 00:57:46;;;;;;;16.63;2.45;;;3.80;99.90;;;;;;5057612;28;20118;-52
2022/01/20 01:00:14;;;;;;;12.80;1.95;;;3.80;99.90;;;;;;5059703;28;20055;-49
2022/01/20 01:02:41;;;;;;;11.50;2.63;;;3.70;99.90;;;;;;5058525;28;20542;-53
2022/01/20 01:05:10;;;;;;;20.48;2.92;;;3.70;99.90;;;;;;5058449;28;20132;-49
2022/01/20 01:07:45;;;;;;;12.07;2.17;;;3.60;99.90;;;;;;5058367;28;20612;-51
2022/01/20 01:10:13;;;;;;;11.30;1.98;;;3.60;99.90;;;;;;5062294;28;20124;-51
2022/01/20 01:12:54;;;;;;;15.20;2.00;;;3.50;99.90;;;;;;5064925;28;20127;-50
2022/01/20 01:15:25;;;;;;;17.42;2.65;;;3.50;99.90;;;;;;5055503;28;20090;-49
2022/01/20 01:23:20;;;;;;;15.02;2.65;;;3.40;99.90;;;;;;5059688;28;20174;-53
2022/01/20 01:25:46;;;;;;;12.85;2.03;;;3.30;99.90;;;;;;5057070;28;20134;-53
2022/01/20 01:28:11;;;;;;;12.68;1.80;;;3.40;99.90;;;;;;5062206;28;20463;-53
2022/01/20 01:33:22;;;;;;;10.43;1.42;;;3.30;99.90;;;;;;5071068;28;20048;-50
2022/01/20 01:35:55;;;;;;;14.32;1.90;;;3.40;99.90;;;;;;5061030;28;20564;-52
2022/01/20 01:38:36;;;;;;;15.45;2.60;;;3.40;99.90;;;;;;5062617;28;20088;-52
2022/01/20 01:41:04;;;;;;;15.35;1.98;;;3.30;99.90;;;;;;5059328;28;20439;-51
2022/01/20 01:43:31;;;;;;;16.73;2.17;;;3.40;99.90;;;;;;5059361;28;20045;-48
2022/01/20 01:46:00;;;;;;;14.65;1.98;;;3.40;99.90;;;;;;5058205;28;20121;-50
2022/01/20 01:48:26;;;;;;;13.25;2.60;;;3.40;99.90;;;;;;5056146;28;20059;-54
2022/01/20 01:50:52;;;;;;;17.80;2.05;;;3.40;99.90;;;;;;5059521;28;20044;-49
2022/01/20 01:53:18;;;;;;;20.08;2.20;;;3.40;99.90;;;;;;5054309;28;20052;-50
2022/01/20 01:55:44;;;;;;;14.88;1.80;;;3.50;99.90;;;;;;5061394;28;20032;-54
2022/01/20 01:58:09;;;;;;;13.07;1.92;;;3.50;99.90;;;;;;5058653;28;20609;-53
2022/01/20 02:00:35;;;;;;;16.00;2.00;;;3.60;99.90;;;;;;5057065;28;20105;-52
2022/01/20 02:03:01;;;;;;;17.42;1.98;;;3.60;99.90;;;;;;5058693;28;20475;-55
2022/01/20 02:05:27;;;;;;;17.30;1.92;;;3.60;99.90;;;;;;5055291;28;20059;-50
2022/01/20 02:08:22;;;;;;;13.70;2.00;;;3.70;99.90;;;;;;5055932;28;20041;-52
2022/01/20 02:18:55;;;;;;;12.35;1.73;;;3.90;99.90;;;;;;5059517;28;20139;-53
2022/01/20 02:21:20;;;;;;;9.68;1.42;;;3.90;99.90;;;;;;5057550;28;20136;-51
2022/01/20 02:23:47;;;;;;;6.68;1.42;;;3.90;99.90;;;;;;5055792;28;20165;-49
2022/01/20 02:26:13;;;;;;;10.53;2.13;;;3.90;99.90;;;;;;5059511;28;20127;-50
2022/01/20 02:28:39;;;;;;;10.52;1.20;;;3.90;99.90;;;;;;5065943;28;20054;-52
2022/01/20 02:31:05;;;;;;;8.25;1.33;;;3.90;99.90;;;;;;5060622;28;20139;-50
2022/01/20 02:33:31;;;;;;;6.97;1.17;;;3.90;99.90;;;;;;5058788;28;20132;-53
2022/01/20 02:36:10;;;;;;;12.02;1.40;;;3.90;99.90;;;;;;5059615;28;20094;-50
2022/01/20 02:38:40;;;;;;;;;;;3.80;99.90;;;;;;5056577;28;20052;-51
2022/01/20 02:46:37;;;;;;;6.45;1.27;;;3.70;99.90;;;;;;5057663;28;20410;-50
2022/01/20 02:49:04;;;;;;;10.23;1.45;;;3.70;99.90;;;;;;5055317;28;20186;-52
2022/01/20 02:51:30;;;;;;;5.15;1.67;;;3.70;99.90;;;;;;5057915;28;20044;-53
2022/01/20 02:53:55;;;;;;;7.53;1.35;;;3.70;99.90;;;;;;5056582;28;20049;-53
2022/01/20 02:56:21;;;;;;;6.00;0.90;;;3.70;99.90;;;;;;5055946;28;20037;-53
2022/01/20 02:58:47;;;;;;;8.70;0.93;;;3.70;99.90;;;;;;5054527;28;20474;-53
2022/01/20 03:01:13;;;;;;;6.35;1.13;;;3.80;99.90;;;;;;5056326;28;20041;-52
2022/01/20 03:03:38;;;;;;;5.78;1.05;;;3.80;99.90;;;;;;5056318;28;20048;-50
2022/01/20 03:06:04;;;;;;;8.20;1.35;;;3.80;99.90;;;;;;5056576;28;20048;-53
2022/01/20 03:08:30;;;;;;;8.77;1.15;;;3.90;99.90;;;;;;5058075;28;20059;-50
2022/01/20 03:10:56;;;;;;;11.05;1.00;;;3.90;99.90;;;;;;5056749;28;20036;-54
2022/01/20 03:13:21;;;;;;;9.40;1.40;;;3.90;99.90;;;;;;5057764;28;21995;-53
2022/01/20 03:15:47;;;;;;;5.07;1.40;;;3.90;99.90;;;;;;5054347;28;20079;-52
2022/01/20 03:18:13;;;;;;;6.53;1.60;;;3.90;99.90;;;;;;5053004;28;20056;-54
2022/01/20 03:20:39;;;;;;;9.30;2.13;;;3.90;99.90;;;;;;5060092;28;20490;-48
2022/01/20 03:23:04;;;;;;;9.38;1.63;;;3.90;99.90;;;;;;5061224;28;20507;-48
2022/01/20 03:25:30;;;;;;;5.82;1.08;;;3.90;99.90;;;;;;5056045;28;20044;-52
2022/01/20 03:27:57;;;;;;;6.60;1.13;;;3.80;99.90;;;;;;5056667;28;20080;-51
2022/01/20 03:30:23;;;;;;;6.18;1.58;;;3.80;99.90;;;;;;5052939;28;20033;-49
2022/01/20 03:32:49;;;;;;;5.43;1.67;;;3.80;99.90;;;;;;5053888;28;20072;-52
2022/01/20 03:35:15;;;;;;;7.50;1.90;;;3.70;99.90;;;;;;5059155;28;20082;-51
2022/01/20 03:37:41;;;;;;;8.35;1.80;;;3.70;99.90;;;;;;5053225;28;20071;-49
2022/01/20 03:40:08;;;;;;;13.90;2.47;;;3.70;99.90;;;;;;5053505;28;20555;-48
2022/01/20 03:42:33;;;;;;;12.85;2.13;;;3.60;99.90;;;;;;5057495;28;20121;-54
2022/01/20 03:44:59;;;;;;;14.43;2.33;;;3.60;99.90;;;;;;5058732;28;20029;-51
2022/01/20 03:47:26;;;;;;;13.05;1.85;;;3.60;99.90;;;;;;5058363;28;20045;-51
2022/01/20 03:50:06;;;;;;;10.77;2.38;;;3.60;99.90;;;;;;5065932;28;20037;-50
2022/01/20 03:52:32;;;;;;;15.35;2.88;;;3.60;99.90;;;;;;5065998;28;20064;-53
2022/01/20 03:54:58;;;;;;;17.58;2.45;;;3.60;99.90;;;;;;5054739;28;20634;-51
2022/01/20 03:57:23;;;;;;;11.68;2.75;;;3.60;99.90;;;;;;5056080;28;20119;-50
2022/01/20 03:59:49;;;;;;;12.88;2.38;;;3.60;99.90;;;;;;5052078;28;20403;-52
2022/01/20 04:02:15;;;;;;;14.82;2.58;;;3.70;99.90;;;;;;5054337;28;20126;-51
2022/01/20 04:04:40;;;;;;;16.10;2.78;;;3.70;99.90;;;;;;5053462;28;20403;-52
2022/01/20 04:07:07;;;;;;;13.50;2.63;;;3.70;99.90;;;;;;5052395;28;20106;-51
2022/01/20 04:09:32;;;;;;;17.60;3.25;;;3.70;99.90;;;;;;5054853;28;20044;-52
2022/01/20 04:11:58;;;;;;;13.27;1.95;;;3.70;99.90;;;;;;5054108;28;20103;-49
2022/01/20 04:14:27;;;;;;;18.17;3.08;;;3.70;99.90;;;;;;5053869;28;20648;-53
2022/01/20 04:19:22;;;;;;;21.58;3.45;;;3.60;99.90;;;;;;5060528;28;20041;-53
2022/01/20 04:21:48;;;;;;;14.23;3.55;;;3.60;99.90;;;;;;5055147;28;20498;-52
2022/01/20 04:24:15;;;;;;;23.45;4.68;;;3.60;99.90;;;;;;5055895;28;20057;-51
2022/01/20 04:26:43;;;;;;;21.17;3.70;;;3.60;99.90;;;;;;5060059;28;20044;-54
2022/01/20 04:29:11;;;;;;;26.60;3.95;;;3.60;99.90;;;;;;5057787;28;20036;-53
2022/01/20 04:31:38;;;;;;;21.25;3.75;;;3.50;99.90;;;;;;5056636;28;20402;-51
2022/01/20 04:34:04;;;;;;;21.42;3.47;;;3.60;99.90;;;;;;5057942;28;20094;-52
2022/01/20 04:36:34;;;;;;;16.58;4.22;;;3.50;99.90;;;;;;5057747;28;20159;-54
2022/01/20 04:39:01;;;;;;;22.65;3.35;;;3.50;99.90;;;;;;5056355;28;20418;-54
2022/01/20 04:41:29;;;;;;;23.48;3.20;;;3.50;99.90;;;;;;5056644;28;20049;-52
2022/01/20 04:43:56;;;;;;;22.77;3.90;;;3.50;99.90;;;;;;5057917;28;20522;-53
2022/01/20 04:46:41;;;;;;;19.60;3.80;;;3.50;99.90;;;;;;5059663;28;20061;-53
2022/01/20 04:57:16;;;;;;;20.67;3.67;;;3.60;99.90;;;;;;5060201;28;20033;-52
2022/01/20 04:59:43;;;;;;;25.05;3.75;;;3.60;99.90;;;;;;5060778;28;20121;-52
2022/01/20 05:02:09;;;;;;;16.50;3.70;;;3.60;99.90;;;;;;5058522;28;20040;-53
2022/01/20 05:04:35;;;;;;;19.25;3.33;;;3.50;99.90;;;;;;5056993;28;20119;-49
2022/01/20 05:07:01;;;;;;;19.95;3.25;;;3.50;99.90;;;;;;5056137;28;20164;-49
2022/01/20 05:09:27;;;;;;;16.08;3.33;;;3.40;99.90;;;;;;5056917;28;20072;-49
2022/01/20 05:12:00;;;;;;;17.65;2.67;;;3.40;99.90;;;;;;5060125;28;20064;-53
2022/01/20 05:14:27;;;;;;;15.68;3.38;;;3.30;99.90;;;;;;5058202;28;20098;-48
2022/01/20 05:16:55;;;;;;;17.45;3.05;;;3.20;99.90;;;;;;5057397;28;20056;-50
2022/01/20 05:19:22;;;;;;;20.58;5.05;;;3.20;99.90;;;;;;5066125;28;20041;-50
2022/01/20 05:21:48;;;;;;;17.07;2.83;;;3.00;99.90;;;;;;5055249;28;20382;-52
2022/01/20 05:24:13;;;;;;;26.02;3.35;;;2.90;99.90;;;;;;5060585;28;20056;-49
2022/01/20 05:26:39;;;;;;;17.95;3.15;;;2.90;99.90;;;;;;5057869;28;20051;-48
2022/01/20 05:29:04;;;;;;;18.45;3.53;;;2.90;99.90;;;;;;5055233;28;20041;-49
2022/01/20 05:31:30;;;;;;;20.60;3.38;;;2.90;99.90;;;;;;5055410;28;20066;-49
2022/01/20 05:33:55;;;;;;;19.40;3.22;;;2.90;99.90;;;;;;5054961;28;20090;-50
2022/01/20 05:36:21;;;;;;;20.42;2.67;;;2.90;99.90;;;;;;5056519;28;20029;-48
2022/01/20 05:38:46;;;;;;;14.52;2.70;;;3.00;99.90;;;;;;5058898;28;20105;-49
2022/01/20 05:41:12;;;;;;;16.75;2.45;;;3.10;99.90;;;;;;5058274;28;21278;-52
2022/01/20 05:43:38;;;;;;;14.07;2.40;;;3.10;99.90;;;;;;5055645;28;20067;-51
2022/01/20 05:46:04;;;;;;;17.42;3.22;;;3.20;99.90;;;;;;5055832;28;20052;-48
2022/01/20 05:48:35;;;;;;;17.05;3.00;;;3.10;99.90;;;;;;5066881;28;20115;-50
2022/01/20 05:51:03;;;;;;;18.25;3.58;;;3.10;99.90;;;;;;5065887;28;20048;-49
2022/01/20 05:53:29;;;;;;;18.25;4.22;;;3.10;99.90;;;;;;5064760;28;21207;-50
2022/01/20 05:55:54;;;;;;;27.15;5.35;;;3.00;99.90;;;;;;5058057;28;20093;-50
2022/01/20 05:58:20;;;;;;;19.23;3.50;;;3.00;99.90;;;;;;5057550;28;20135;-49
2022/01/20 06:00:46;;;;;;;16.60;2.95;;;3.10;99.90;;;;;;5056352;28;20359;-47
2022/01/20 06:05:57;;;;;;;15.27;3.88;;;3.20;99.90;;;;;;5058367;28;20044;-48
2022/01/20 06:08:23;;;;;;;18.55;3.65;;;3.20;99.90;;;;;;5056928;28;20110;-51
2022/01/20 06:10:49;;;;;;;19.85;3.28;;;3.10;99.90;;;;;;5055470;28;20074;-48
2022/01/20 06:13:15;;;;;;;22.35;3.13;;;3.10;99.90;;;;;;5057611;28;20044;-49
2022/01/20 06:15:40;;;;;;;17.90;3.05;;;3.00;99.90;;;;;;5057750;28;20052;-51
2022/01/20 06:18:06;;;;;;;16.13;3.15;;;2.90;99.90;;;;;;5054749;28;20048;-51
2022/01/20 06:20:32;;;;;;;17.75;2.88;;;2.80;99.90;;;;;;5058376;28;20152;-49
2022/01/20 06:22:58;;;;;;;15.30;2.88;;;2.70;99.90;;;;;;5056153;28;20037;-50
2022/01/20 06:25:24;;;;;;;13.15;2.10;;;2.60;99.90;;;;;;5053862;28;21888;-49
2022/01/20 06:27:49;;;;;;;13.57;2.50;;;2.50;99.90;;;;;;5056760;28;20040;-48
2022/01/20 06:30:15;;;;;;;13.40;2.47;;;2.50;99.90;;;;;;5055955;28;20029;-52
2022/01/20 06:32:41;;;;;;;14.93;1.85;;;2.40;99.90;;;;;;5053987;28;20071;-50
2022/01/20 06:35:07;;;;;;;12.02;2.42;;;2.30;99.90;;;;;;5054698;28;20033;-54
2022/01/20 06:37:33;;;;;;;12.68;2.22;;;2.20;99.90;;;;;;5054113;28;20083;-49
2022/01/20 06:39:59;;;;;;;11.70;1.95;;;2.20;99.90;;;;;;5054871;28;20463;-48
2022/01/20 06:42:24;;;;;;;15.38;2.15;;;2.20;99.90;;;;;;5055836;28;20052;-50
2022/01/20 06:44:50;;;;;;;10.23;2.05;;;2.20;99.90;;;;;;5055353;28;20060;-50
2022/01/20 06:47:15;;;;;;;11.60;2.53;;;2.10;99.90;;;;;;5054790;28;20089;-48
2022/01/20 06:49:41;;;;;;;12.48;1.90;;;2.10;99.90;;;;;;5052952;28;20410;-48
2022/01/20 06:52:07;;;;;;;12.52;2.53;;;2.20;99.90;;;;;;5054919;28;20040;-54
2022/01/20 06:54:34;;;;;;;10.23;2.33;;;2.20;99.90;;;;;;5054254;28;20376;-50
2022/01/20 06:57:00;;;;;;;10.73;2.22;;;2.30;99.90;;;;;;5058270;28;20064;-53
2022/01/20 06:59:25;;;;;;;10.85;2.15;;;2.20;99.90;;;;;;5083611;28;20028;-50
2022/01/20 07:01:51;;;;;;;12.40;2.60;;;2.20;99.90;;;;;;5058474;28;20051;-49
2022/01/20 07:04:18;;;;;;;11.85;2.15;;;2.10;99.90;;;;;;5054998;28;20044;-48
2022/01/20 07:06:43;;;;;;;17.50;2.38;;;1.90;99.90;;;;;;5053364;28;20103;-49
2022/01/20 07:09:10;;;;;;;13.65;1.98;;;1.90;99.90;;;;;;5054117;28;20494;-49
2022/01/20 07:11:39;;;;;;;17.70;2.63;;;1.80;99.90;;;;;;5061111;28;20041;-51
2022/01/20 07:14:06;;;;;;;18.13;2.63;;;1.70;99.90;;;;;;5055771;28;20041;-51
2022/01/20 07:16:32;;;;;;;15.45;2.83;;;1.70;99.90;;;;;;5053124;28;20468;-49
2022/01/20 07:18:57;;;;;;;18.08;3.08;;;1.60;99.90;;;;;;5055780;28;20055;-49
2022/01/20 07:21:23;;;;;;;14.90;2.40;;;1.60;99.90;;;;;;5055602;28;20403;-47
2022/01/20 07:23:50;;;;;;;18.67;3.25;;;1.60;99.90;;;;;;5055248;28;20032;-49
2022/01/20 07:26:16;;;;;;;14.40;2.42;;;1.60;99.90;;;;;;5055093;28;20048;-48
2022/01/20 07:28:42;;;;;;;15.60;2.42;;;1.50;99.90;;;;;;5052756;28;20055;-54
2022/01/20 07:31:08;;;;;;;14.32;1.95;;;1.50;99.90;;;;;;5054736;28;20032;-53
2022/01/20 07:33:35;;;;;;;12.90;2.22;;;1.50;99.90;;;;;;5063439;28;20098;-52
2022/01/20 07:36:00;;;;;;;12.48;2.58;;;1.50;99.90;;;;;;5067235;28;20091;-53
2022/01/20 07:38:26;;;;;;;13.73;2.15;;;1.60;99.90;;;;;;5056862;28;20090;-50
2022/01/20 07:40:51;;;;;;;14.27;2.72;;;1.70;99.90;;;;;;5054169;28;20124;-52
2022/01/20 07:43:17;;;;;;;18.27;3.33;;;1.80;99.90;;;;;;5055487;28;20177;-49
2022/01/20 07:45:43;;;;;;;13.75;2.58;;;1.80;99.90;;;;;;5055079;28;20060;-50
2022/01/20 07:48:09;;;;;;;15.38;2.80;;;1.80;99.90;;;;;;5058931;28;20068;-52
2022/01/20 07:50:35;;;;;;;15.60;2.70;;;1.80;99.90;;;;;;5056145;28;20083;-52
2022/01/20 07:53:01;;;;;;;12.18;2.38;;;1.70;99.90;;;;;;5054372;28;20502;-50
2022/01/20 07:55:26;;;;;;;15.23;3.05;;;1.70;99.90;;;;;;5055717;28;20075;-50
2022/01/20 07:57:52;;;;;;;14.98;2.55;;;1.70;99.90;;;;;;5066425;28;20040;-51
2022/01/20 08:00:18;;;;;;;15.75;2.65;;;1.70;99.90;;;;;;5055194;28;20075;-49
2022/01/20 08:02:44;;;;;;;13.63;2.80;;;1.70;99.90;;;;;;5053418;28;20041;-53
2022/01/20 08:05:09;;;;;;;18.58;3.30;;;1.80;99.90;;;;;;5053666;28;20037;-50
2022/01/20 08:07:35;;;;;;;21.42;3.42;;;1.80;99.90;;;;;;5055656;28;20045;-52
2022/01/20 08:10:00;;;;;;;21.08;2.95;;;1.90;99.90;;;;;;5052524;28;20091;-55
2022/01/20 08:12:28;;;;;;;13.23;2.53;;;1.90;99.90;;;;;;5055639;28;20463;-53
2022/01/20 08:14:55;;;;;;;18.40;3.15;;;2.00;99.90;;;;;;5059144;28;20045;-49
2022/01/20 08:17:21;;;;;;;13.98;3.05;;;2.00;99.90;;;;;;5059370;28;20144;-50
2022/01/20 08:19:48;;;;;;;19.42;2.88;;;2.00;99.90;;;;;;5057891;28;20072;-49
2022/01/20 08:22:13;;;;;;;15.23;3.17;;;1.90;99.90;;;;;;5057815;28;20040;-48
2022/01/20 08:24:41;;;;;;;17.17;3.05;;;1.80;99.90;;;;;;5062124;28;20781;-50
2022/01/20 08:27:08;;;;;;;14.80;2.97;;;1.80;99.90;;;;;;5061545;28;20153;-48
2022/01/20 08:29:34;;;;;;;12.98;2.90;;;1.80;99.90;;;;;;5064366;28;20055;-47
2022/01/20 08:31:59;;;;;;;15.43;2.35;;;1.80;99.90;;;;;;5065354;28;20041;-46
2022/01/20 08:34:25;;;;;;;14.25;2.75;;;1.80;99.90;;;;;;5065339;28;20119;-47
2022/01/20 08:36:54;;;;;;;14.13;3.13;;;1.80;99.90;;;;;;5065767;28;20117;-47
2022/01/20 08:39:31;;;;;;;17.10;2.83;;;1.80;99.90;;;;;;5062431;28;20478;-51
2022/01/20 08:41:58;;;;;;;17.88;2.70;;;1.90;99.90;;;;;;5064609;28;20611;-51
2022/01/20 08:44:24;;;;;;;19.42;3.13;;;2.00;99.90;;;;;;5058526;28;20343;-52
2022/01/20 08:46:52;;;;;;;18.55;3.35;;;2.10;99.90;;;;;;5058498;28;20063;-48
2022/01/20 08:49:17;;;;;;;15.30;2.92;;;2.20;99.90;;;;;;5069334;28;20049;-50
2022/01/20 08:51:43;;;;;;;21.20;3.08;;;2.30;99.90;;;;;;5062084;28;20058;-50
2022/01/20 08:54:09;;;;;;;14.52;2.75;;;2.30;99.90;;;;;;5065557;28;20141;-49
2022/01/20 08:56:34;;;;;;;18.45;3.22;;;2.40;99.90;;;;;;5062304;28;20082;-52
2022/01/20 08:59:07;;;;;;;20.70;3.75;;;2.50;99.90;;;;;;5060454;28;20045;-53
2022/01/20 09:01:35;;;;;;;14.90;2.53;;;2.50;99.90;;;;;;5056955;28;20455;-49
2022/01/20 09:04:00;;;;;;;18.07;3.57;;;2.60;99.90;;;;;;5062015;28;20044;-49
2022/01/20 09:06:26;;;;;;;18.83;3.58;;;2.70;99.90;;;;;;5071760;28;20052;-49
2022/01/20 09:08:51;;;;;;;15.88;3.05;;;2.70;99.90;;;;;;5058653;28;20344;-51
2022/01/20 09:11:19;;;;;;;16.48;3.30;;;2.80;99.90;;;;;;5066349;28;20041;-51
2022/01/20 09:16:30;;;;;;;18.38;3.55;;;2.90;99.90;;;;;;5065295;28;20553;-50
2022/01/20 09:18:56;;;;;;;17.85;2.40;;;3.00;99.90;;;;;;5061770;28;20045;-50
2022/01/20 09:21:23;;;;;;;17.55;3.33;;;2.90;99.90;;;;;;5071966;28;20032;-52
2022/01/20 09:23:49;;;;;;;20.73;3.55;;;2.80;99.90;;;;;;5073639;28;20110;-51
2022/01/20 09:26:15;;;;;;;14.70;4.25;;;2.70;99.90;;;;;;5066728;28;20482;-49
2022/01/20 09:28:41;;;;;;;23.80;3.67;;;2.70;99.90;;;;;;5074233;28;20069;-50
2022/01/20 09:31:07;;;;;;;13.50;2.28;;;2.70;99.90;;;;;;5073209;28;20040;-49
2022/01/20 09:33:33;;;;;;;14.20;2.72;;;2.70;99.90;;;;;;5073926;28;20045;-48
2022/01/20 09:35:58;;;;;;;11.70;2.15;;;2.70;99.90;;;;;;5059108;28;20048;-52
2022/01/20 09:38:25;;;;;;;11.95;1.80;;;2.70;99.90;;;;;;5055542;28;20376;-53
2022/01/20 09:40:50;;;;;;;11.65;2.33;;;2.60;99.90;;;;;;5070138;28;20415;-50
2022/01/20 09:43:16;;;;;;;11.57;2.28;;;2.60;99.90;;;;;;5073239;28;20036;-48
2022/01/20 09:45:45;;;;;;;10.20;2.30;;;2.60;99.90;;;;;;5061239;28;20095;-49
2022/01/20 09:48:11;;;;;;;7.45;1.83;;;2.60;99.90;;;;;;5053761;28;20045;-52
2022/01/20 09:50:38;;;;;;;8.38;1.45;;;2.60;99.90;;;;;;5061754;28;20523;-47
2022/01/20 09:53:04;;;;;;;12.02;1.70;;;2.60;99.90;;;;;;5064752;28;20115;-53
2022/01/20 09:55:32;;;;;;;13.65;2.35;;;2.60;99.90;;;;;;5065644;28;20037;-52
2022/01/20 09:57:58;;;;;;;10.57;1.80;;;2.50;99.90;;;;;;5054178;28;20407;-51
2022/01/20 10:00:24;;;;;;;10.70;2.50;;;2.50;99.90;;;;;;5054910;28;20111;-51
2022/01/20 10:03:12;;;;;;;14.13;2.47;;;2.60;99.90;;;;;;5054244;28;20051;-52
2022/01/20 10:05:47;;;;;;;11.25;2.80;;;2.70;99.90;;;;;;5060577;28;20051;-53
2022/01/20 10:08:25;;;;;;;9.48;1.63;;;2.80;99.90;;;;;;5053866;28;20111;-51
2022/01/20 10:10:56;;;;;;;;;;;2.80;99.90;;;;;;5062584;28;20375;-51
2022/01/20 10:13:36;;;;;;;11.52;2.00;;;2.90;99.90;;;;;;5052864;28;19925;-48
2022/01/20 10:16:14;;;;;;;8.38;2.15;;;2.80;99.90;;;;;;5061336;28;20059;-53
2022/01/20 10:18:52;;;;;;;16.73;3.70;;;2.70;99.90;;;;;;5055161;28;20126;-51
2022/01/20 10:21:26;;;;;;;15.55;2.92;;;2.50;99.90;;;;;;5061145;28;20393;-50
2022/01/20 10:23:51;;;;;;;11.88;2.13;;;2.40;99.90;;;;;;5053599;28;20162;-51
2022/01/20 10:26:23;;;;;;;15.38;2.65;;;2.40;99.90;;;;;;5067119;28;20135;-54
2022/01/20 10:28:54;;;;;;;17.63;2.15;;;2.40;99.90;;;;;;5070257;28;20115;-51
2022/01/20 10:31:51;;;;;;;11.48;2.60;;;2.30;99.90;;;;;;5066624;28;20082;-50
2022/01/20 10:34:34;;;;;;;12.98;2.38;;;2.30;99.90;;;;;;5053233;28;20078;-52
2022/01/20 10:37:17;;;;;;;8.45;1.90;;;2.30;99.90;;;;;;5059629;28;20041;-52
2022/01/20 10:39:45;;;;;;;10.27;1.70;;;2.50;99.90;;;;;;5068991;28;20044;-48
2022/01/20 10:42:23;;;;;;;;;;;2.70;99.90;;;;;;5068587;28;20098;-49
2022/01/20 10:44:54;;;;;;;9.63;1.65;;;2.80;99.90;;;;;;5053317;28;20367;-52
2022/01/20 10:47:22;;;;;;;14.10;2.25;;;2.90;99.90;;;;;;5058618;28;20083;-48
2022/01/20 10:49:49;;;;;;;19.17;3.05;;;3.00;99.90;;;;;;5054199;28;20041;-49
2022/01/20 10:52:16;;;;;;;17.63;2.10;;;;;;;;;;5069111;28;20036;-49
2022/01/20 10:54:47;;;;;;;13.67;2.70;;;3.10;99.90;;;;;;5062382;28;20040;-50
2022/01/20 10:57:15;;;;;;;15.25;2.65;;;3.00;99.90;;;;;;5063550;28;20044;-52
2022/01/20 10:59:55;;;;;;;6.75;2.13;;;3.00;99.90;;;;;;5059607;28;20067;-48
2022/01/20 11:02:25;;;;;;;10.50;1.63;;;2.80;99.90;;;;;;5067913;28;20487;-49
2022/01/20 11:04:51;;;;;;;9.90;1.92;;;2.80;99.90;;;;;;5066276;28;20129;-49
2022/01/20 11:07:16;;;;;;;10.88;2.97;;;2.80;99.90;;;;;;5063163;28;20491;-51
2022/01/20 11:09:44;;;;;;;10.73;1.75;;;2.80;99.90;;;;;;5065858;28;20033;-52
2022/01/20 11:12:15;;;;;;;11.50;2.13;;;2.80;99.90;;;;;;5066805;28;20052;-49
2022/01/20 11:14:43;;;;;;;13.07;2.40;;;2.90;99.90;;;;;;5067453;28;20074;-51
2022/01/20 11:17:17;;;;;;;6.60;1.38;;;2.90;99.90;;;;;;5060291;28;20049;-48
2022/01/20 11:19:44;;;;;;;8.45;1.50;;;3.00;99.90;;;;;;5063724;28;20064;-48
2022/01/20 11:22:12;;;;;;;6.95;1.20;;;3.00;99.90;;;;;;5062070;28;20048;-53
2022/01/20 11:24:39;;;;;;;8.30;1.42;;;3.00;99.90;;;;;;5063946;28;20055;-52
2022/01/20 11:27:07;;;;;;;8.98;1.58;;;3.00;99.90;;;;;;5066384;28;20044;-49
2022/01/20 11:29:49;;;;;;;10.40;1.98;;;3.00;99.90;;;;;;5051409;28;20075;-53
2022/01/20 11:32:26;;;;;;;18.77;2.10;;;3.10;99.90;;;;;;5064381;28;20056;-52
2022/01/20 11:35:01;;;;;;;18.17;3.40;;;3.20;99.90;;;;;;5079289;28;20043;-51
2022/01/20 11:37:31;;;;;;;10.27;2.03;;;3.40;99.90;;;;;;5070574;28;20041;-52
2022/01/20 11:40:09;;;;;;;10.45;1.83;;;3.50;99.90;;;;;;5068996;28;20406;-50
2022/01/20 11:42:35;;;;;;;19.77;2.92;;;3.60;99.90;;;;;;5064310;28;20076;-51
2022/01/20 11:45:00;;;;;;;26.75;4.07;;;3.70;99.90;;;;;;5069751;28;20114;-52
2022/01/20 11:47:32;;;;;;;8.93;2.10;;;3.80;99.90;;;;;;5065556;28;20048;-49
2022/01/20 11:49:59;;;;;;;10.27;2.15;;;3.90;99.90;;;;;;5060643;28;20037;-52
2022/01/20 11:52:28;;;;;;;12.10;1.90;;;4.00;99.90;;;;;;5054872;28;20465;-48
2022/01/20 11:54:54;;;;;;;8.82;2.05;;;;;;;;;;5051730;28;20041;-48
2022/01/20 11:57:19;;;;;;;11.00;1.98;;;4.10;99.90;;;;;;5060581;28;20845;-50
2022/01/20 11:59:52;;;;;;;12.52;2.47;;;4.10;99.90;;;;;;5056562;28;20119;-49
2022/01/20 12:02:33;;;;;;;17.67;2.70;;;4.10;99.90;;;;;;5057291;28;20052;-48
2022/01/20 12:05:00;;;;;;;16.70;2.58;;;4.10;99.90;;;;;;5051716;28;20419;-48
2022/01/20 12:07:32;;;;;;;8.80;1.80;;;4.20;99.90;;;;;;5063854;28;20482;-50
2022/01/20 12:10:10;;;;;;;7.75;1.70;;;4.20;99.90;;;;;;5057251;28;20685;-49
2022/01/20 12:12:38;;;;;;;11.82;2.38;;;4.30;99.90;;;;;;5063481;28;20510;-52
2022/01/20 12:15:20;;;;;;;15.45;2.80;;;4.40;99.90;;;;;;5061708;28;20123;-50
2022/01/20 12:17:51;;;;;;;12.13;2.40;;;4.50;99.90;;;;;;5065498;28;20037;-52
2022/01/20 12:20:17;;;;;;;13.75;2.25;;;4.60;99.90;;;;;;5064100;28;20044;-52
2022/01/20 12:22:44;;;;;;;21.95;3.10;;;4.80;99.90;;;;;;5061706;28;20044;-52
2022/01/20 12:25:26;;;;;;;12.73;2.33;;;4.90;99.90;;;;;;5066142;28;20037;-53
2022/01/20 12:28:01;;;;;;;7.72;2.10;;;4.90;99.90;;;;;;5064572;28;20049;-50
2022/01/20 12:30:27;;;;;;;19.08;3.00;;;4.80;99.90;;;;;;5064872;28;20152;-52
2022/01/20 12:32:56;;;;;;;16.05;3.25;;;4.90;99.90;;;;;;5058940;28;20116;-49
2022/01/20 12:35:22;;;;;;;17.25;3.50;;;4.90;99.90;;;;;;5063404;28;20083;-52
2022/01/20 12:37:48;;;;;;;16.50;2.38;;;4.70;99.90;;;;;;5067189;28;20090;-49
2022/01/20 12:40:20;;;;;;;17.15;3.65;;;4.50;99.90;;;;;;5065574;28;20048;-51
2022/01/20 12:42:46;;;;;;;15.43;3.40;;;4.40;99.90;;;;;;5064592;28;20052;-49
2022/01/20 12:48:28;;;;;;;14.73;2.67;;;4.40;99.90;;;;;;5092520;28;20581;-49
2022/01/20 12:51:01;;;;;;;15.15;2.20;;;4.40;99.90;;;;;;5092069;28;20135;-52
2022/01/20 12:53:54;;;;;;;14.27;2.78;;;4.40;99.90;;;;;;5092962;28;20570;-48
2022/01/20 12:56:29;;;;;;;9.20;2.25;;;4.50;99.90;;;;;;5092661;28;20406;-50
2022/01/20 12:58:54;;;;;;;15.77;2.45;;;4.60;99.90;;;;;;5091767;28;20071;-52
2022/01/20 13:01:20;;;;;;;8.95;2.08;;;4.60;99.90;;;;;;5092876;28;20036;-51
2022/01/20 13:03:46;;;;;;;18.40;3.10;;;4.70;99.90;;;;;;5092203;28;20048;-52
2022/01/20 13:06:22;;;;;;;10.95;2.53;;;4.80;99.90;;;;;;5092272;28;20418;-49
2022/01/20 13:09:18;;;;;;;13.40;2.47;;;4.90;99.90;;;;;;5092714;28;20059;-48
2022/01/20 13:11:59;;;;;;;17.75;2.90;;;5.30;99.90;;;;;;5092412;28;20134;-50
2022/01/20 13:14:46;;;;;;;14.05;2.80;;;5.20;99.90;;;;;;5091461;28;20040;-49
2022/01/20 13:17:24;;;;;;;15.25;2.45;;;5.30;99.90;;;;;;5092071;28;20456;-49
2022/01/20 13:19:54;;;;;;;14.57;3.08;;;5.30;99.90;;;;;;5092255;28;20052;-48
2022/01/20 13:22:25;;;;;;;15.43;2.95;;;5.40;99.90;;;;;;5082819;28;20045;-51
2022/01/20 13:24:51;;;;;;;18.88;3.33;;;5.40;99.90;;;;;;5074333;28;20048;-52
2022/01/20 13:27:17;;;;;;;12.93;2.65;;;5.50;99.90;;;;;;5074248;28;20135;-50
2022/01/20 13:29:45;;;;;;;13.43;2.58;;;5.40;99.90;;;;;;5074622;28;20124;-52
2022/01/20 13:32:12;;;;;;;13.88;2.63;;;5.30;99.90;;;;;;5060635;28;20084;-53
2022/01/20 13:34:38;;;;;;;17.23;2.90;;;5.30;99.90;;;;;;5073649;28;20051;-49
2022/01/20 13:37:04;;;;;;;9.93;2.25;;;5.30;99.90;;;;;;5073317;28;20044;-51
2022/01/20 13:39:38;;;;;;;13.88;2.55;;;5.20;99.90;;;;;;5074212;28;20108;-49
2022/01/20 13:42:19;;;;;;;15.73;2.13;;;5.10;99.90;;;;;;5074149;28;20619;-49
2022/01/20 13:45:12;;;;;;;8.32;2.17;;;4.90;99.90;;;;;;5074345;28;20079;-52
2022/01/20 13:47:59;;;;;;;8.70;2.03;;;4.10;99.90;;;;;;5073943;28;20478;-49
2022/01/20 13:50:31;;;;;;;7.60;2.25;;;4.00;99.90;;;;;;5081360;28;20056;-50
2022/01/20 13:52:58;;;;;;;10.63;2.38;;;3.80;99.90;;;;;;5069427;28;20049;-50
2022/01/20 13:55:28;;;;;;;7.05;2.22;;;3.70;99.90;;;;;;5073365;28;20040;-52
2022/01/20 13:57:55;;;;;;;9.02;1.75;;;3.70;99.90;;;;;;5073163;28;20049;-52
2022/01/20 14:00:23;;;;;;;7.30;2.10;;;3.70;99.90;;;;;;5073829;28;20051;-49
2022/01/20 14:02:50;;;;;;;;;;;3.80;99.90;;;;;;5074045;28;20434;-52